createdAt,value
2018-09-14T00:01:01.852Z,6.00
2018-09-14T00:03:30.771Z,5.80
2018-09-14T00:05:59.566Z,5.27
2018-09-14T00:08:28.312Z,5.77
2018-09-14T00:10:56.487Z,6.15
2018-09-14T00:13:24.825Z,6.30
2018-09-14T00:15:53.038Z,6.67
2018-09-14T00:18:21.555Z,5.53
2018-09-14T00:20:49.692Z,5.73
2018-09-14T00:23:18.455Z,5.50
2018-09-14T00:25:46.520Z,5.60
2018-09-14T00:28:14.833Z,6.03
2018-09-14T00:30:43.012Z,5.53
2018-09-14T00:33:13.858Z,4.67
2018-09-14T00:35:42.315Z,5.35
2018-09-14T00:38:11.914Z,5.70
2018-09-14T00:40:40.189Z,5.30
2018-09-14T00:43:08.449Z,6.60
2018-09-14T00:45:36.768Z,5.72
2018-09-14T00:48:05.034Z,6.10
2018-09-14T00:50:33.304Z,5.53
2018-09-14T00:53:01.706Z,5.63
2018-09-14T00:55:30.561Z,6.63
2018-09-14T00:57:58.682Z,5.73
2018-09-14T01:00:27.818Z,5.20
2018-09-14T01:02:56.075Z,5.50
2018-09-14T01:05:24.146Z,5.47
2018-09-14T01:07:53.077Z,5.07
2018-09-14T01:10:21.256Z,5.57
2018-09-14T01:12:49.387Z,6.03
2018-09-14T01:15:17.555Z,5.33
2018-09-14T01:17:46.038Z,5.17
2018-09-14T01:20:14.176Z,5.40
2018-09-14T01:22:42.420Z,5.50
2018-09-14T01:25:11.154Z,5.57
2018-09-14T01:27:39.246Z,6.13
2018-09-14T01:30:07.487Z,5.80
2018-09-14T01:32:36.909Z,5.27
2018-09-14T01:35:09.175Z,5.55
2018-09-14T01:37:38.039Z,4.70
2018-09-14T01:40:06.207Z,5.15
2018-09-14T01:42:34.379Z,5.07
2018-09-14T01:45:02.475Z,4.80
2018-09-14T01:47:30.787Z,5.20
2018-09-14T01:49:59.368Z,4.93
2018-09-14T01:52:27.515Z,5.03
2018-09-14T01:54:55.718Z,5.40
2018-09-14T01:57:23.882Z,4.93
2018-09-14T01:59:52.108Z,4.70
2018-09-14T02:02:20.474Z,5.77
2018-09-14T02:04:48.626Z,5.37
2018-09-14T02:07:16.898Z,5.80
2018-09-14T02:09:45.099Z,5.33
2018-09-14T02:12:14.804Z,5.60
2018-09-14T02:14:44.171Z,5.10
2018-09-14T02:17:12.513Z,5.33
2018-09-14T02:19:40.964Z,5.67
2018-09-14T02:22:10.504Z,5.37
2018-09-14T02:24:38.875Z,5.70
2018-09-14T02:27:08.424Z,5.45
2018-09-14T02:29:36.548Z,5.65
2018-09-14T02:32:04.946Z,5.40
2018-09-14T02:34:33.273Z,5.00
2018-09-14T02:37:02.855Z,5.48
2018-09-14T02:39:31.673Z,5.17
2018-09-14T02:42:00.016Z,5.90
2018-09-14T02:44:28.142Z,4.67
2018-09-14T02:46:56.671Z,4.70
2018-09-14T02:49:25.790Z,5.27
2018-09-14T02:51:53.909Z,5.93
2018-09-14T02:54:42.114Z,5.13
2018-09-14T02:57:10.270Z,5.75
2018-09-14T02:59:38.425Z,5.75
2018-09-14T03:02:06.975Z,5.42
2018-09-14T03:04:35.209Z,6.93
2018-09-14T03:07:03.717Z,6.58
2018-09-14T03:09:32.619Z,6.27
2018-09-14T03:12:00.890Z,6.33
2018-09-14T03:14:28.996Z,7.20
2018-09-14T03:16:57.135Z,7.93
2018-09-14T03:19:25.408Z,7.60
2018-09-14T03:21:53.590Z,8.70
2018-09-14T03:24:22.067Z,8.40
2018-09-14T03:26:50.323Z,8.33
2018-09-14T03:29:18.453Z,6.55
2018-09-14T03:31:46.785Z,7.67
2018-09-14T03:34:15.972Z,6.58
2018-09-14T03:36:44.463Z,6.60
2018-09-14T03:39:12.658Z,7.57
2018-09-14T03:41:41.272Z,7.80
2018-09-14T03:44:09.344Z,7.17
2018-09-14T03:46:37.679Z,7.33
2018-09-14T03:49:09.467Z,7.10
2018-09-14T03:51:40.157Z,6.17
2018-09-14T03:54:09.711Z,6.80
2018-09-14T03:56:37.893Z,6.62
2018-09-14T03:59:07.366Z,7.27
2018-09-14T04:01:36.247Z,7.07
2018-09-14T04:04:06.090Z,7.03
2018-09-14T04:06:34.899Z,7.20
2018-09-14T04:09:05.691Z,6.83
2018-09-14T04:11:34.043Z,6.50
2018-09-14T04:14:02.716Z,7.17
2018-09-14T04:16:32.505Z,7.33
2018-09-14T04:19:02.095Z,6.90
2018-09-14T04:21:33.347Z,7.70
2018-09-14T04:24:03.070Z,6.50
2018-09-14T04:26:32.374Z,6.87
2018-09-14T04:29:01.227Z,6.63
2018-09-14T04:31:29.846Z,7.73
2018-09-14T04:33:59.733Z,7.33
2018-09-14T04:36:29.905Z,6.67
2018-09-14T04:38:59.097Z,7.30
2018-09-14T04:41:27.875Z,7.30
2018-09-14T04:43:56.866Z,7.50
2018-09-14T04:46:25.050Z,7.97
2018-09-14T04:48:54.220Z,6.53
2018-09-14T04:51:22.590Z,7.50
2018-09-14T04:53:51.983Z,7.97
2018-09-14T04:56:21.128Z,7.92
2018-09-14T04:58:49.401Z,7.27
2018-09-14T05:01:17.892Z,7.53
2018-09-14T05:03:47.406Z,7.60
2018-09-14T05:06:20.583Z,7.62
2018-09-14T05:08:50.248Z,7.85
2018-09-14T05:11:18.435Z,7.80
2018-09-14T05:13:46.909Z,7.07
2018-09-14T05:16:15.075Z,7.85
2018-09-14T05:18:43.551Z,6.78
2018-09-14T05:21:11.834Z,7.15
2018-09-14T05:23:40.622Z,6.75
2018-09-14T05:26:09.269Z,8.00
2018-09-14T05:28:37.559Z,7.87
2018-09-14T05:31:07.238Z,7.10
2018-09-14T05:33:35.344Z,6.95
2018-09-14T05:36:07.011Z,8.02
2018-09-14T05:38:35.633Z,7.73
2018-09-14T05:41:05.576Z,8.07
2018-09-14T05:43:33.642Z,8.10
2018-09-14T05:46:03.548Z,7.30
2018-09-14T05:48:35.186Z,8.07
2018-09-14T05:51:03.559Z,8.00
2018-09-14T05:53:31.939Z,8.90
2018-09-14T05:56:00.685Z,8.30
2018-09-14T05:58:29.981Z,8.67
2018-09-14T06:00:58.129Z,7.80
2018-09-14T06:03:26.771Z,8.43
2018-09-14T06:05:56.142Z,7.90
2018-09-14T06:08:24.450Z,8.20
2018-09-14T06:10:55.095Z,8.90
2018-09-14T06:13:25.477Z,8.45
2018-09-14T06:15:53.574Z,8.37
2018-09-14T06:18:22.089Z,8.00
2018-09-14T06:20:51.723Z,7.85
2018-09-14T06:23:21.270Z,7.87
2018-09-14T06:25:50.742Z,8.60
2018-09-14T06:28:20.221Z,8.63
2018-09-14T06:30:48.599Z,7.72
2018-09-14T06:33:16.731Z,8.53
2018-09-14T06:35:44.846Z,7.03
2018-09-14T06:38:13.511Z,6.00
2018-09-14T06:40:42.345Z,6.70
2018-09-14T06:43:10.418Z,7.22
2018-09-14T06:45:40.833Z,7.78
2018-09-14T06:48:09.110Z,6.62
2018-09-14T06:50:39.414Z,7.07
2018-09-14T06:53:07.880Z,7.43
2018-09-14T06:55:37.042Z,7.53
2018-09-14T06:58:06.281Z,6.80
2018-09-14T07:00:34.958Z,6.37
2018-09-14T07:03:04.028Z,5.87
2018-09-14T07:05:32.454Z,6.80
2018-09-14T07:08:02.674Z,6.07
2018-09-14T07:10:31.437Z,5.90
2018-09-14T07:12:59.591Z,6.20
2018-09-14T07:15:29.765Z,5.60
2018-09-14T07:17:58.194Z,6.70
2018-09-14T07:20:27.734Z,6.17
2018-09-14T07:22:58.721Z,7.77
2018-09-14T07:25:26.819Z,6.40
2018-09-14T07:27:56.067Z,5.70
2018-09-14T07:30:24.671Z,5.23
2018-09-14T07:32:52.831Z,4.95
2018-09-14T07:35:20.998Z,5.22
2018-09-14T07:37:50.514Z,5.30
2018-09-14T07:40:18.839Z,5.08
2018-09-14T07:42:48.858Z,5.05
2018-09-14T07:45:17.570Z,6.12
2018-09-14T07:47:47.125Z,4.77
2018-09-14T07:50:15.782Z,4.73
2018-09-14T07:52:45.703Z,4.37
2018-09-14T07:55:13.760Z,4.70
2018-09-14T07:57:42.137Z,4.72
2018-09-14T08:00:11.556Z,4.80
2018-09-14T08:02:40.047Z,4.70
2018-09-14T08:05:08.807Z,4.70
2018-09-14T08:07:38.354Z,4.70
2018-09-14T08:10:08.526Z,6.00
2018-09-14T08:12:37.217Z,4.60
2018-09-14T08:15:06.444Z,4.93
2018-09-14T08:20:09.094Z,5.75
2018-09-14T08:22:37.452Z,4.90
2018-09-14T08:25:05.527Z,6.30
2018-09-14T08:27:35.091Z,6.03
2018-09-14T08:30:04.158Z,5.58
2018-09-14T08:32:33.979Z,5.87
2018-09-14T08:35:02.265Z,5.50
2018-09-14T08:37:30.398Z,5.40
2018-09-14T08:39:58.496Z,5.43
2018-09-14T08:42:26.586Z,6.17
2018-09-14T08:44:54.794Z,6.10
2018-09-14T08:47:24.043Z,5.60
2018-09-14T08:49:52.419Z,4.70
2018-09-14T08:52:20.498Z,5.37
2018-09-14T08:54:48.716Z,4.93
2018-09-14T08:57:16.895Z,5.93
2018-09-14T08:59:45.621Z,6.40
2018-09-14T09:02:13.703Z,6.10
2018-09-14T09:04:42.065Z,4.53
2018-09-14T09:07:11.481Z,5.00
2018-09-14T09:09:39.751Z,4.85
2018-09-14T09:12:08.115Z,4.83
2018-09-14T09:14:36.202Z,4.60
2018-09-14T09:17:04.554Z,5.10
2018-09-14T09:19:34.011Z,4.40
2018-09-14T09:22:03.154Z,4.10
2018-09-14T09:24:31.400Z,4.50
2018-09-14T09:26:59.522Z,5.27
2018-09-14T09:29:27.901Z,5.30
2018-09-14T09:31:59.486Z,5.20
2018-09-14T09:34:28.160Z,4.83
2018-09-14T09:36:56.456Z,4.63
2018-09-14T09:39:25.379Z,5.43
2018-09-14T09:41:55.468Z,11.87
2018-09-14T09:44:25.399Z,4.50
2018-09-14T09:46:53.607Z,4.10
2018-09-14T09:49:21.790Z,4.47
2018-09-14T09:51:50.261Z,4.97
2018-09-14T09:54:19.445Z,5.00
2018-09-14T09:56:47.633Z,4.97
2018-09-14T09:59:15.760Z,5.27
2018-09-14T10:01:50.234Z,5.10
2018-09-14T10:04:25.535Z,5.30
2018-09-14T10:06:56.330Z,4.57
2018-09-14T10:09:26.334Z,5.60
2018-09-14T10:11:54.482Z,4.93
2018-09-14T10:14:23.295Z,5.30
2018-09-14T10:16:52.687Z,4.85
2018-09-14T10:19:21.851Z,5.35
2018-09-14T10:21:50.000Z,4.50
2018-09-14T10:24:18.084Z,4.50
2018-09-14T10:26:46.195Z,5.17
2018-09-14T10:29:14.535Z,5.50
2018-09-14T10:31:42.670Z,4.45
2018-09-14T10:34:11.065Z,5.47
2018-09-14T10:36:39.167Z,5.87
2018-09-14T10:39:09.274Z,5.13
2018-09-14T10:41:37.486Z,4.60
2018-09-14T10:44:05.672Z,5.40
2018-09-14T10:46:35.311Z,5.12
2018-09-14T10:49:04.093Z,5.43
2018-09-14T10:51:32.499Z,5.00
2018-09-14T10:54:00.762Z,5.40
2018-09-14T10:56:29.140Z,5.47
2018-09-14T10:58:57.369Z,4.73
2018-09-14T11:01:25.486Z,4.97
2018-09-14T11:03:54.303Z,4.97
2018-09-14T11:06:34.888Z,3.87
2018-09-14T11:09:15.576Z,4.03
2018-09-14T11:11:43.860Z,3.50
2018-09-14T11:14:12.132Z,4.42
2018-09-14T11:16:40.306Z,5.13
2018-09-14T11:19:10.541Z,5.63
2018-09-14T11:21:38.789Z,4.70
2018-09-14T11:24:07.102Z,5.60
2018-09-14T11:26:35.409Z,5.07
2018-09-14T11:29:04.818Z,5.57
2018-09-14T11:31:33.478Z,5.40
2018-09-14T11:34:01.591Z,4.60
2018-09-14T11:36:30.219Z,4.90
2018-09-14T11:38:58.346Z,5.40
2018-09-14T11:41:27.736Z,4.37
2018-09-14T11:43:56.030Z,4.80
2018-09-14T11:46:24.804Z,4.40
2018-09-14T11:48:54.406Z,4.65
2018-09-14T11:51:22.612Z,4.20
2018-09-14T11:53:50.691Z,3.30
2018-09-14T11:56:18.805Z,2.90
2018-09-14T11:58:49.128Z,3.30
2018-09-14T12:01:19.875Z,2.95
2018-09-14T12:03:49.867Z,3.70
2018-09-14T12:06:18.307Z,3.58
2018-09-14T12:08:46.811Z,3.62
2018-09-14T12:11:17.994Z,7.87
2018-09-14T12:13:46.393Z,3.30
2018-09-14T12:16:14.805Z,3.57
2018-09-14T12:18:43.543Z,2.97
2018-09-14T12:21:12.081Z,3.63
2018-09-14T12:23:40.670Z,3.20
2018-09-14T12:26:09.135Z,3.03
2018-09-14T12:28:37.531Z,2.80
2018-09-14T12:31:06.243Z,3.63
2018-09-14T12:33:36.603Z,2.87
2018-09-14T12:36:06.160Z,2.87
2018-09-14T12:38:37.017Z,3.67
2018-09-14T12:41:05.896Z,2.80
2018-09-14T12:43:35.137Z,2.83
2018-09-14T12:46:03.424Z,3.07
2018-09-14T12:48:31.837Z,2.80
2018-09-14T12:50:59.920Z,3.17
2018-09-14T12:53:28.800Z,3.17
2018-09-14T12:55:57.237Z,3.23
2018-09-14T12:58:25.490Z,2.43
2018-09-14T13:00:54.262Z,2.30
2018-09-14T13:03:24.065Z,2.17
2018-09-14T13:05:52.398Z,3.07
2018-09-14T13:08:20.512Z,3.00
2018-09-14T13:10:48.970Z,2.52
2018-09-14T13:13:17.608Z,2.90
2018-09-14T13:15:46.899Z,2.07
2018-09-14T13:18:15.113Z,2.33
2018-09-14T13:20:44.012Z,2.30
2018-09-14T13:23:12.478Z,2.30
2018-09-14T13:25:41.747Z,10.10
2018-09-14T13:28:10.068Z,2.50
2018-09-14T13:30:38.603Z,2.00
2018-09-14T13:33:06.700Z,2.07
2018-09-14T13:35:36.320Z,1.93
2018-09-14T13:38:05.725Z,1.92
2018-09-14T13:40:34.376Z,1.50
2018-09-14T13:43:03.885Z,1.60
2018-09-14T13:45:32.398Z,2.07
2018-09-14T13:48:00.695Z,1.95
2018-09-14T13:50:29.030Z,1.93
2018-09-14T13:52:57.299Z,1.60
2018-09-14T13:55:26.105Z,1.57
2018-09-14T13:57:54.534Z,1.33
2018-09-14T14:00:25.069Z,1.60
2018-09-14T14:02:53.195Z,1.10
2018-09-14T14:05:21.804Z,1.13
2018-09-14T14:07:49.991Z,1.60
2018-09-14T14:10:18.147Z,1.52
2018-09-14T14:12:46.406Z,1.77
2018-09-14T14:15:14.596Z,1.82
2018-09-14T14:17:43.989Z,1.70
2018-09-14T14:20:12.153Z,1.40
2018-09-14T14:22:40.338Z,1.60
2018-09-14T14:25:09.830Z,1.60
2018-09-14T14:27:38.360Z,2.93
2018-09-14T14:30:06.560Z,2.10
2018-09-14T14:32:35.676Z,1.20
2018-09-14T14:35:03.908Z,1.50
2018-09-14T14:37:32.762Z,1.27
2018-09-14T14:40:01.058Z,1.17
2018-09-14T14:42:29.234Z,1.20
2018-09-14T14:44:57.580Z,1.80
2018-09-14T14:47:25.743Z,1.90
2018-09-14T14:49:53.994Z,1.50
2018-09-14T14:52:22.466Z,1.27
2018-09-14T14:54:50.975Z,1.50
2018-09-14T14:57:19.194Z,1.20
2018-09-14T14:59:47.586Z,1.35
2018-09-14T15:02:15.951Z,1.30
2018-09-14T15:04:44.097Z,1.30
2018-09-14T15:07:12.278Z,1.45
2018-09-14T15:09:40.442Z,1.45
2018-09-14T15:12:08.630Z,1.50
2018-09-14T15:14:36.972Z,1.10
2018-09-14T15:17:06.487Z,1.35
2018-09-14T15:19:35.113Z,1.10
2018-09-14T15:22:04.378Z,1.40
2018-09-14T15:24:33.178Z,1.27
2018-09-14T15:27:01.389Z,1.13
2018-09-14T15:29:29.960Z,1.20
2018-09-14T15:31:59.179Z,8.33
2018-09-14T15:34:27.286Z,1.67
2018-09-14T15:36:55.558Z,1.40
2018-09-14T15:39:25.450Z,1.10
2018-09-14T15:41:53.718Z,1.90
2018-09-14T15:44:22.021Z,1.42
2018-09-14T15:46:52.273Z,1.37
2018-09-14T15:49:21.468Z,1.50
2018-09-14T15:51:50.868Z,1.90
2018-09-14T15:54:19.067Z,1.60
2018-09-14T15:56:47.344Z,1.77
2018-09-14T15:59:15.593Z,1.70
2018-09-14T16:01:43.685Z,1.50
2018-09-14T16:04:13.453Z,1.55
2018-09-14T16:06:42.352Z,1.67
2018-09-14T16:09:11.562Z,1.87
2018-09-14T16:11:39.929Z,1.50
2018-09-14T16:14:08.900Z,1.70
2018-09-14T16:16:38.831Z,2.43
2018-09-14T16:19:10.208Z,2.02
2018-09-14T16:21:38.858Z,1.70
2018-09-14T16:24:07.595Z,1.63
2018-09-14T16:26:36.090Z,1.40
2018-09-14T16:29:05.565Z,1.60
2018-09-14T16:31:34.906Z,1.30
2018-09-14T16:34:03.534Z,1.50
2018-09-14T16:36:32.585Z,2.00
2018-09-14T16:39:02.084Z,1.30
2018-09-14T16:41:30.269Z,1.57
2018-09-14T16:43:58.511Z,2.00
2018-09-14T16:46:28.017Z,2.07
2018-09-14T16:48:56.351Z,1.60
2018-09-14T16:51:27.530Z,1.60
2018-09-14T16:53:55.690Z,1.63
2018-09-14T16:56:24.726Z,1.75
2018-09-14T16:58:55.821Z,1.67
2018-09-14T17:01:23.935Z,1.90
2018-09-14T17:03:53.227Z,2.08
2018-09-14T17:06:21.527Z,2.00
2018-09-14T17:08:49.958Z,1.77
2018-09-14T17:11:18.275Z,2.10
2018-09-14T17:13:46.472Z,1.80
2018-09-14T17:16:14.892Z,2.03
2018-09-14T17:18:45.800Z,1.62
2018-09-14T17:21:13.878Z,1.90
2018-09-14T17:23:42.158Z,2.00
2018-09-14T17:26:11.261Z,2.10
2018-09-14T17:28:39.562Z,2.30
2018-09-14T17:31:08.267Z,2.30
2018-09-14T17:33:38.112Z,2.70
2018-09-14T17:36:06.540Z,2.17
2018-09-14T17:38:38.361Z,1.80
2018-09-14T17:41:08.869Z,1.30
2018-09-14T17:43:37.348Z,2.20
2018-09-14T17:46:05.639Z,1.53
2018-09-14T17:48:34.544Z,1.50
2018-09-14T17:51:04.069Z,1.50
2018-09-14T17:53:33.215Z,1.83
2018-09-14T17:56:01.469Z,1.70
2018-09-14T17:58:36.099Z,1.70
2018-09-14T18:01:06.944Z,1.50
2018-09-14T18:03:35.053Z,2.00
2018-09-14T18:06:03.759Z,1.50
2018-09-14T18:08:32.076Z,2.03
2018-09-14T18:11:00.499Z,1.70
2018-09-14T18:13:28.706Z,1.80
2018-09-14T18:15:57.509Z,2.00
2018-09-14T18:18:26.234Z,2.20
2018-09-14T18:20:54.373Z,1.77
2018-09-14T18:23:23.511Z,2.02
2018-09-14T18:25:51.626Z,1.90
2018-09-14T18:28:21.847Z,1.77
2018-09-14T18:30:50.322Z,2.08
2018-09-14T18:33:18.512Z,1.87
2018-09-14T18:35:47.400Z,2.63
2018-09-14T18:38:16.062Z,2.00
2018-09-14T18:40:44.204Z,1.95
2018-09-14T18:43:13.707Z,1.98
2018-09-14T18:45:41.800Z,2.50
2018-09-14T18:48:09.928Z,2.50
2018-09-14T18:50:38.068Z,2.50
2018-09-14T18:53:07.430Z,2.20
2018-09-14T18:55:37.356Z,2.40
2018-09-14T18:58:08.270Z,2.50
2018-09-14T19:05:29.493Z,2.20
2018-09-14T19:07:57.935Z,2.60
2018-09-14T19:10:26.208Z,2.80
2018-09-14T19:12:55.751Z,2.70
2018-09-14T19:15:25.114Z,3.00
2018-09-14T19:17:53.243Z,2.83
2018-09-14T19:20:21.408Z,3.50
2018-09-14T19:22:50.661Z,3.30
2018-09-14T19:25:20.057Z,2.62
2018-09-14T19:27:49.494Z,2.90
2018-09-14T19:30:17.710Z,3.60
2018-09-14T19:32:46.316Z,3.27
2018-09-14T19:35:14.818Z,3.00
2018-09-14T19:37:42.975Z,2.95
2018-09-14T19:40:11.161Z,2.97
2018-09-14T19:42:39.401Z,3.30
2018-09-14T19:45:07.551Z,2.97
2018-09-14T19:47:36.138Z,3.37
2018-09-14T19:50:04.499Z,2.70
2018-09-14T19:52:32.562Z,3.37
2018-09-14T19:55:00.723Z,2.70
2018-09-14T19:57:29.756Z,3.07
2018-09-14T19:59:58.176Z,3.33
2018-09-14T20:02:27.737Z,3.10
2018-09-14T20:04:55.921Z,3.53
2018-09-14T20:07:24.106Z,4.00
2018-09-14T20:09:52.256Z,4.10
2018-09-14T20:12:20.522Z,3.20
2018-09-14T20:14:48.803Z,3.75
2018-09-14T20:17:16.925Z,5.33
2018-09-14T20:19:45.742Z,5.00
2018-09-14T20:22:14.031Z,6.13
2018-09-14T20:24:43.881Z,6.20
2018-09-14T20:27:12.088Z,5.60
2018-09-14T20:29:40.470Z,6.30
2018-09-14T20:32:08.782Z,6.97
2018-09-14T20:34:37.666Z,6.90
2018-09-14T20:37:06.059Z,7.20
2018-09-14T20:39:34.170Z,6.70
2018-09-14T20:42:02.347Z,6.10
2018-09-14T20:44:30.618Z,7.10
2018-09-14T20:46:59.186Z,10.30
2018-09-14T20:49:27.447Z,8.00
2018-09-14T20:51:55.617Z,8.23
2018-09-14T20:54:23.710Z,9.00
2018-09-14T20:56:51.899Z,8.67
2018-09-14T20:59:22.573Z,8.60
2018-09-14T21:01:50.793Z,8.40
2018-09-14T21:04:18.992Z,8.10
2018-09-14T21:06:48.443Z,6.78
2018-09-14T21:09:16.639Z,6.78
2018-09-14T21:11:44.855Z,7.05
2018-09-14T21:14:12.992Z,6.48
2018-09-14T21:16:41.208Z,6.90
2018-09-14T21:19:09.323Z,5.80
2018-09-14T21:21:39.656Z,4.72
2018-09-14T21:24:07.969Z,4.70
2018-09-14T21:26:36.856Z,4.33
2018-09-14T21:29:06.093Z,3.70
2018-09-14T21:31:34.554Z,3.47
2018-09-14T21:34:02.752Z,3.00
2018-09-14T21:36:30.924Z,3.70
2018-09-14T21:38:59.983Z,3.20
2018-09-14T21:41:28.895Z,3.73
2018-09-14T21:43:57.109Z,3.63
2018-09-14T21:46:25.237Z,3.70
2018-09-14T21:48:59.817Z,4.07
2018-09-14T21:51:27.970Z,3.90
2018-09-14T21:53:56.398Z,3.67
2018-09-14T21:56:24.500Z,4.37
2018-09-14T21:58:52.700Z,4.25
2018-09-14T22:01:23.691Z,5.85
2018-09-14T22:03:51.830Z,4.73
2018-09-14T22:06:24.481Z,5.22
2018-09-14T22:08:52.786Z,6.07
2018-09-14T22:11:20.906Z,6.20
2018-09-14T22:13:49.713Z,5.30
2018-09-14T22:16:18.302Z,5.50
2018-09-14T22:18:46.666Z,5.17
2018-09-14T22:21:15.033Z,4.70
2018-09-14T22:23:43.307Z,4.67
2018-09-14T22:26:11.395Z,4.30
2018-09-14T22:28:39.638Z,4.63
2018-09-14T22:31:08.914Z,5.63
2018-09-14T22:33:38.026Z,4.95
2018-09-14T22:36:06.139Z,4.83
2018-09-14T22:38:34.352Z,4.00
2018-09-14T22:41:02.728Z,4.43
2018-09-14T22:43:31.783Z,12.95
2018-09-14T22:45:59.914Z,6.20
2018-09-14T22:48:28.053Z,4.87
2018-09-14T22:50:56.182Z,4.90
2018-09-14T22:53:24.715Z,4.83
2018-09-14T22:55:52.864Z,4.75
2018-09-14T22:58:21.290Z,4.93
2018-09-14T23:00:56.475Z,4.33
2018-09-14T23:03:24.564Z,4.58
2018-09-14T23:05:52.727Z,4.33
2018-09-14T23:08:20.843Z,5.67
2018-09-14T23:10:48.998Z,7.08
2018-09-14T23:15:58.284Z,6.77
2018-09-14T23:18:27.392Z,6.83
2018-09-14T23:20:55.621Z,7.80
2018-09-14T23:23:24.649Z,5.90
2018-09-14T23:25:54.582Z,6.37
2018-09-14T23:28:22.712Z,6.40
2018-09-14T23:31:01.327Z,6.20
2018-09-14T23:33:31.050Z,6.30
2018-09-14T23:35:59.223Z,6.85
2018-09-14T23:38:27.384Z,5.70
2018-09-14T23:40:55.488Z,6.27
2018-09-14T23:43:23.599Z,5.08
2018-09-14T23:45:52.281Z,5.85
2018-09-14T23:48:20.513Z,5.10
2018-09-14T23:50:48.607Z,5.67
2018-09-14T23:53:17.171Z,5.87
2018-09-14T23:55:45.318Z,6.85
2018-09-14T23:58:13.651Z,6.30
